sensor_id;sensor_type;location;lat;lon;timestamp;P1;durP1;ratioP1;P2;durP2;ratioP2
50821;SDS011;36794;51.212;6.980;2023-10-13T00:01:23;15.68;;;9.73;;
50821;SDS011;36794;51.212;6.980;2023-10-13T00:03:49;16.80;;;8.88;;
50821;SDS011;36794;51.212;6.980;2023-10-13T00:06:17;16.65;;;8.18;;
50821;SDS011;36794;51.212;6.980;2023-10-13T00:08:43;20.33;;;10.48;;
50821;SDS011;36794;51.212;6.980;2023-10-13T00:11:13;17.27;;;8.52;;
50821;SDS011;36794;51.212;6.980;2023-10-13T00:13:39;12.77;;;7.82;;
50821;SDS011;36794;51.212;6.980;2023-10-13T00:16:09;14.85;;;8.77;;
50821;SDS011;36794;51.212;6.980;2023-10-13T00:18:41;17.92;;;8.90;;
50821;SDS011;36794;51.212;6.980;2023-10-13T00:21:08;15.13;;;8.80;;
50821;SDS011;36794;51.212;6.980;2023-10-13T00:23:39;17.02;;;8.68;;
50821;SDS011;36794;51.212;6.980;2023-10-13T00:26:08;13.88;;;8.40;;
50821;SDS011;36794;51.212;6.980;2023-10-13T00:28:34;14.70;;;8.57;;
50821;SDS011;36794;51.212;6.980;2023-10-13T00:31:08;11.63;;;7.73;;
50821;SDS011;36794;51.212;6.980;2023-10-13T00:33:37;13.63;;;8.23;;
50821;SDS011;36794;51.212;6.980;2023-10-13T00:36:04;13.00;;;8.82;;
50821;SDS011;36794;51.212;6.980;2023-10-13T00:38:32;16.02;;;9.02;;
50821;SDS011;36794;51.212;6.980;2023-10-13T00:41:02;15.82;;;8.20;;
50821;SDS011;36794;51.212;6.980;2023-10-13T00:43:44;12.23;;;8.15;;
50821;SDS011;36794;51.212;6.980;2023-10-13T00:46:10;14.88;;;8.55;;
50821;SDS011;36794;51.212;6.980;2023-10-13T00:48:39;14.98;;;8.25;;
50821;SDS011;36794;51.212;6.980;2023-10-13T00:51:17;14.30;;;8.40;;
50821;SDS011;36794;51.212;6.980;2023-10-13T00:53:47;19.17;;;8.82;;
50821;SDS011;36794;51.212;6.980;2023-10-13T00:56:14;15.18;;;7.40;;
50821;SDS011;36794;51.212;6.980;2023-10-13T00:58:53;21.08;;;8.52;;
50821;SDS011;36794;51.212;6.980;2023-10-13T01:01:20;16.58;;;8.68;;
50821;SDS011;36794;51.212;6.980;2023-10-13T01:03:48;12.38;;;7.93;;
50821;SDS011;36794;51.212;6.980;2023-10-13T01:06:17;11.60;;;7.57;;
50821;SDS011;36794;51.212;6.980;2023-10-13T01:08:45;13.95;;;7.65;;
50821;SDS011;36794;51.212;6.980;2023-10-13T01:11:15;14.02;;;7.90;;
50821;SDS011;36794;51.212;6.980;2023-10-13T01:13:41;18.90;;;8.68;;
50821;SDS011;36794;51.212;6.980;2023-10-13T01:16:07;17.45;;;8.20;;
50821;SDS011;36794;51.212;6.980;2023-10-13T01:18:34;14.27;;;8.05;;
50821;SDS011;36794;51.212;6.980;2023-10-13T01:21:12;16.10;;;8.38;;
50821;SDS011;36794;51.212;6.980;2023-10-13T01:23:40;20.08;;;8.00;;
50821;SDS011;36794;51.212;6.980;2023-10-13T01:26:07;16.40;;;8.70;;
50821;SDS011;36794;51.212;6.980;2023-10-13T01:28:34;13.73;;;8.68;;
50821;SDS011;36794;51.212;6.980;2023-10-13T01:31:09;12.35;;;7.85;;
50821;SDS011;36794;51.212;6.980;2023-10-13T01:33:37;12.77;;;7.72;;
50821;SDS011;36794;51.212;6.980;2023-10-13T01:36:03;14.90;;;8.23;;
50821;SDS011;36794;51.212;6.980;2023-10-13T01:38:35;14.85;;;7.95;;
50821;SDS011;36794;51.212;6.980;2023-10-13T01:41:06;12.55;;;7.75;;
50821;SDS011;36794;51.212;6.980;2023-10-13T01:43:33;10.88;;;7.45;;
50821;SDS011;36794;51.212;6.980;2023-10-13T01:45:59;12.32;;;7.47;;
50821;SDS011;36794;51.212;6.980;2023-10-13T01:48:28;13.13;;;7.95;;
50821;SDS011;36794;51.212;6.980;2023-10-13T01:50:57;13.27;;;7.88;;
50821;SDS011;36794;51.212;6.980;2023-10-13T01:53:25;16.77;;;9.02;;
50821;SDS011;36794;51.212;6.980;2023-10-13T01:55:54;14.88;;;8.10;;
50821;SDS011;36794;51.212;6.980;2023-10-13T01:58:23;17.42;;;8.57;;
50821;SDS011;36794;51.212;6.980;2023-10-13T02:00:51;13.55;;;8.23;;
50821;SDS011;36794;51.212;6.980;2023-10-13T02:03:17;12.18;;;8.35;;
50821;SDS011;36794;51.212;6.980;2023-10-13T02:05:44;16.13;;;8.27;;
50821;SDS011;36794;51.212;6.980;2023-10-13T02:08:22;14.98;;;8.48;;
50821;SDS011;36794;51.212;6.980;2023-10-13T02:10:49;16.88;;;8.98;;
50821;SDS011;36794;51.212;6.980;2023-10-13T02:13:15;15.52;;;8.27;;
50821;SDS011;36794;51.212;6.980;2023-10-13T02:15:43;15.15;;;8.52;;
50821;SDS011;36794;51.212;6.980;2023-10-13T02:18:09;16.08;;;8.70;;
50821;SDS011;36794;51.212;6.980;2023-10-13T02:20:35;16.75;;;9.43;;
50821;SDS011;36794;51.212;6.980;2023-10-13T02:23:08;14.65;;;8.93;;
50821;SDS011;36794;51.212;6.980;2023-10-13T02:25:36;14.00;;;8.32;;
50821;SDS011;36794;51.212;6.980;2023-10-13T02:28:08;13.90;;;8.35;;
50821;SDS011;36794;51.212;6.980;2023-10-13T02:30:40;15.13;;;9.02;;
50821;SDS011;36794;51.212;6.980;2023-10-13T02:33:10;19.08;;;9.38;;
50821;SDS011;36794;51.212;6.980;2023-10-13T02:35:36;14.98;;;9.60;;
50821;SDS011;36794;51.212;6.980;2023-10-13T02:38:06;14.15;;;8.95;;
50821;SDS011;36794;51.212;6.980;2023-10-13T02:40:36;20.10;;;9.23;;
50821;SDS011;36794;51.212;6.980;2023-10-13T02:43:02;20.40;;;10.07;;
50821;SDS011;36794;51.212;6.980;2023-10-13T02:45:29;16.85;;;9.38;;
50821;SDS011;36794;51.212;6.980;2023-10-13T02:47:55;25.42;;;10.30;;
50821;SDS011;36794;51.212;6.980;2023-10-13T02:50:42;17.98;;;10.10;;
50821;SDS011;36794;51.212;6.980;2023-10-13T02:53:09;22.23;;;10.90;;
50821;SDS011;36794;51.212;6.980;2023-10-13T02:55:48;21.23;;;11.02;;
50821;SDS011;36794;51.212;6.980;2023-10-13T02:58:14;22.30;;;11.07;;
50821;SDS011;36794;51.212;6.980;2023-10-13T03:00:40;22.77;;;11.55;;
50821;SDS011;36794;51.212;6.980;2023-10-13T03:03:06;20.75;;;11.68;;
50821;SDS011;36794;51.212;6.980;2023-10-13T03:05:39;20.58;;;11.63;;
50821;SDS011;36794;51.212;6.980;2023-10-13T03:08:05;24.95;;;11.73;;
50821;SDS011;36794;51.212;6.980;2023-10-13T03:10:31;22.67;;;12.05;;
50821;SDS011;36794;51.212;6.980;2023-10-13T03:12:58;20.52;;;11.68;;
50821;SDS011;36794;51.212;6.980;2023-10-13T03:15:24;22.83;;;12.15;;
50821;SDS011;36794;51.212;6.980;2023-10-13T03:17:56;21.45;;;12.48;;
50821;SDS011;36794;51.212;6.980;2023-10-13T03:20:26;26.17;;;12.20;;
50821;SDS011;36794;51.212;6.980;2023-10-13T03:22:58;21.42;;;12.05;;
50821;SDS011;36794;51.212;6.980;2023-10-13T03:25:25;22.45;;;12.00;;
50821;SDS011;36794;51.212;6.980;2023-10-13T03:27:53;19.88;;;12.57;;
50821;SDS011;36794;51.212;6.980;2023-10-13T03:30:19;21.95;;;13.10;;
50821;SDS011;36794;51.212;6.980;2023-10-13T03:32:46;20.85;;;12.77;;
50821;SDS011;36794;51.212;6.980;2023-10-13T03:35:19;26.05;;;12.73;;
50821;SDS011;36794;51.212;6.980;2023-10-13T03:37:48;26.27;;;12.85;;
50821;SDS011;36794;51.212;6.980;2023-10-13T03:40:14;23.90;;;12.50;;
50821;SDS011;36794;51.212;6.980;2023-10-13T03:42:50;24.60;;;12.55;;
50821;SDS011;36794;51.212;6.980;2023-10-13T03:45:34;27.67;;;12.55;;
50821;SDS011;36794;51.212;6.980;2023-10-13T03:48:04;25.80;;;13.00;;
50821;SDS011;36794;51.212;6.980;2023-10-13T03:50:37;22.00;;;12.52;;
50821;SDS011;36794;51.212;6.980;2023-10-13T03:53:22;26.60;;;12.60;;
50821;SDS011;36794;51.212;6.980;2023-10-13T03:55:50;23.02;;;13.18;;
50821;SDS011;36794;51.212;6.980;2023-10-13T03:58:33;24.63;;;12.73;;
50821;SDS011;36794;51.212;6.980;2023-10-13T04:00:59;22.80;;;12.98;;
50821;SDS011;36794;51.212;6.980;2023-10-13T04:03:25;22.98;;;12.65;;
50821;SDS011;36794;51.212;6.980;2023-10-13T04:06:07;22.38;;;13.10;;
50821;SDS011;36794;51.212;6.980;2023-10-13T04:08:41;22.88;;;12.63;;
50821;SDS011;36794;51.212;6.980;2023-10-13T04:11:07;20.35;;;12.07;;
50821;SDS011;36794;51.212;6.980;2023-10-13T04:13:52;23.67;;;12.48;;
50821;SDS011;36794;51.212;6.980;2023-10-13T04:16:36;23.17;;;11.77;;
50821;SDS011;36794;51.212;6.980;2023-10-13T04:19:05;25.80;;;12.80;;
50821;SDS011;36794;51.212;6.980;2023-10-13T04:21:34;23.33;;;13.18;;
50821;SDS011;36794;51.212;6.980;2023-10-13T04:24:04;21.38;;;12.27;;
50821;SDS011;36794;51.212;6.980;2023-10-13T04:26:42;25.75;;;12.95;;
50821;SDS011;36794;51.212;6.980;2023-10-13T04:29:28;23.02;;;12.30;;
50821;SDS011;36794;51.212;6.980;2023-10-13T04:32:11;30.45;;;14.00;;
50821;SDS011;36794;51.212;6.980;2023-10-13T04:34:44;21.00;;;12.52;;
50821;SDS011;36794;51.212;6.980;2023-10-13T04:37:13;24.92;;;13.18;;
50821;SDS011;36794;51.212;6.980;2023-10-13T04:39:55;25.17;;;13.20;;
50821;SDS011;36794;51.212;6.980;2023-10-13T04:42:36;25.88;;;13.00;;
50821;SDS011;36794;51.212;6.980;2023-10-13T04:45:18;24.58;;;13.05;;
50821;SDS011;36794;51.212;6.980;2023-10-13T04:47:56;22.95;;;13.07;;
50821;SDS011;36794;51.212;6.980;2023-10-13T04:50:38;24.77;;;13.25;;
50821;SDS011;36794;51.212;6.980;2023-10-13T04:53:06;24.48;;;11.80;;
50821;SDS011;36794;51.212;6.980;2023-10-13T04:55:52;22.50;;;12.98;;
50821;SDS011;36794;51.212;6.980;2023-10-13T04:58:27;20.88;;;12.70;;
50821;SDS011;36794;51.212;6.980;2023-10-13T05:01:14;23.60;;;12.52;;
50821;SDS011;36794;51.212;6.980;2023-10-13T05:03:49;25.13;;;12.38;;
50821;SDS011;36794;51.212;6.980;2023-10-13T05:06:38;22.38;;;12.00;;
50821;SDS011;36794;51.212;6.980;2023-10-13T05:09:07;27.40;;;12.15;;
50821;SDS011;36794;51.212;6.980;2023-10-13T05:14:37;19.60;;;11.65;;
50821;SDS011;36794;51.212;6.980;2023-10-13T05:17:22;26.55;;;12.80;;
50821;SDS011;36794;51.212;6.980;2023-10-13T05:20:07;21.65;;;11.38;;
50821;SDS011;36794;51.212;6.980;2023-10-13T05:22:52;22.67;;;12.52;;
50821;SDS011;36794;51.212;6.980;2023-10-13T05:25:37;27.38;;;12.63;;
50821;SDS011;36794;51.212;6.980;2023-10-13T05:28:21;25.52;;;12.80;;
50821;SDS011;36794;51.212;6.980;2023-10-13T05:31:07;22.13;;;12.70;;
50821;SDS011;36794;51.212;6.980;2023-10-13T05:33:52;30.35;;;12.63;;
50821;SDS011;36794;51.212;6.980;2023-10-13T05:36:37;26.88;;;12.13;;
50821;SDS011;36794;51.212;6.980;2023-10-13T05:39:23;25.48;;;12.82;;
50821;SDS011;36794;51.212;6.980;2023-10-13T05:42:08;24.40;;;13.02;;
50821;SDS011;36794;51.212;6.980;2023-10-13T05:44:52;27.45;;;12.98;;
50821;SDS011;36794;51.212;6.980;2023-10-13T05:47:35;29.85;;;12.27;;
50821;SDS011;36794;51.212;6.980;2023-10-13T05:50:07;24.30;;;10.77;;
50821;SDS011;36794;51.212;6.980;2023-10-13T05:52:49;19.40;;;12.13;;
50821;SDS011;36794;51.212;6.980;2023-10-13T05:55:24;26.55;;;11.45;;
50821;SDS011;36794;51.212;6.980;2023-10-13T05:58:09;23.45;;;10.90;;
50821;SDS011;36794;51.212;6.980;2023-10-13T06:00:54;22.90;;;10.85;;
50821;SDS011;36794;51.212;6.980;2023-10-13T06:03:38;27.10;;;11.23;;
50821;SDS011;36794;51.212;6.980;2023-10-13T06:06:23;19.10;;;10.93;;
50821;SDS011;36794;51.212;6.980;2023-10-13T06:09:07;24.73;;;11.52;;
50821;SDS011;36794;51.212;6.980;2023-10-13T06:11:52;23.45;;;11.30;;
50821;SDS011;36794;51.212;6.980;2023-10-13T06:14:36;27.40;;;11.88;;
50821;SDS011;36794;51.212;6.980;2023-10-13T06:17:22;26.80;;;11.55;;
50821;SDS011;36794;51.212;6.980;2023-10-13T06:20:06;22.90;;;11.13;;
50821;SDS011;36794;51.212;6.980;2023-10-13T06:22:51;20.73;;;11.63;;
50821;SDS011;36794;51.212;6.980;2023-10-13T06:25:37;22.50;;;11.40;;
50821;SDS011;36794;51.212;6.980;2023-10-13T06:28:21;22.60;;;11.85;;
50821;SDS011;36794;51.212;6.980;2023-10-13T06:31:06;22.25;;;11.10;;
50821;SDS011;36794;51.212;6.980;2023-10-13T06:33:32;27.98;;;12.27;;
50821;SDS011;36794;51.212;6.980;2023-10-13T06:36:07;19.80;;;11.43;;
50821;SDS011;36794;51.212;6.980;2023-10-13T06:38:36;28.00;;;11.90;;
50821;SDS011;36794;51.212;6.980;2023-10-13T06:41:02;26.00;;;12.05;;
50821;SDS011;36794;51.212;6.980;2023-10-13T06:43:35;22.13;;;12.48;;
50821;SDS011;36794;51.212;6.980;2023-10-13T06:46:05;26.90;;;11.77;;
50821;SDS011;36794;51.212;6.980;2023-10-13T06:48:32;23.02;;;11.63;;
50821;SDS011;36794;51.212;6.980;2023-10-13T06:50:59;24.63;;;12.10;;
50821;SDS011;36794;51.212;6.980;2023-10-13T06:53:46;25.77;;;11.73;;
50821;SDS011;36794;51.212;6.980;2023-10-13T06:56:16;21.48;;;11.50;;
50821;SDS011;36794;51.212;6.980;2023-10-13T07:01:13;23.02;;;11.65;;
50821;SDS011;36794;51.212;6.980;2023-10-13T07:03:46;24.50;;;11.18;;
50821;SDS011;36794;51.212;6.980;2023-10-13T07:06:17;22.85;;;10.95;;
50821;SDS011;36794;51.212;6.980;2023-10-13T07:08:45;21.40;;;11.05;;
50821;SDS011;36794;51.212;6.980;2023-10-13T07:11:16;23.52;;;11.07;;
50821;SDS011;36794;51.212;6.980;2023-10-13T07:13:47;23.23;;;10.73;;
50821;SDS011;36794;51.212;6.980;2023-10-13T07:16:15;19.17;;;10.18;;
50821;SDS011;36794;51.212;6.980;2023-10-13T07:18:41;23.58;;;10.70;;
50821;SDS011;36794;51.212;6.980;2023-10-13T07:21:18;20.00;;;9.82;;
50821;SDS011;36794;51.212;6.980;2023-10-13T07:23:49;25.35;;;11.05;;
50821;SDS011;36794;51.212;6.980;2023-10-13T07:26:25;24.38;;;10.05;;
50821;SDS011;36794;51.212;6.980;2023-10-13T07:28:51;22.88;;;10.50;;
50821;SDS011;36794;51.212;6.980;2023-10-13T07:31:19;19.50;;;9.20;;
50821;SDS011;36794;51.212;6.980;2023-10-13T07:33:46;22.27;;;9.73;;
50821;SDS011;36794;51.212;6.980;2023-10-13T07:36:12;20.33;;;9.48;;
50821;SDS011;36794;51.212;6.980;2023-10-13T07:38:45;20.35;;;9.52;;
50821;SDS011;36794;51.212;6.980;2023-10-13T07:41:17;20.40;;;8.85;;
50821;SDS011;36794;51.212;6.980;2023-10-13T07:43:47;20.02;;;8.32;;
50821;SDS011;36794;51.212;6.980;2023-10-13T07:46:13;24.50;;;8.15;;
50821;SDS011;36794;51.212;6.980;2023-10-13T07:48:39;22.98;;;8.68;;
50821;SDS011;36794;51.212;6.980;2023-10-13T07:51:07;19.63;;;8.38;;
50821;SDS011;36794;51.212;6.980;2023-10-13T07:53:45;18.67;;;8.38;;
50821;SDS011;36794;51.212;6.980;2023-10-13T07:56:14;16.70;;;8.15;;
50821;SDS011;36794;51.212;6.980;2023-10-13T07:58:44;19.55;;;7.50;;
50821;SDS011;36794;51.212;6.980;2023-10-13T08:01:25;18.35;;;8.30;;
50821;SDS011;36794;51.212;6.980;2023-10-13T08:03:51;13.63;;;7.10;;
50821;SDS011;36794;51.212;6.980;2023-10-13T08:06:33;17.50;;;7.32;;
50821;SDS011;36794;51.212;6.980;2023-10-13T08:09:01;19.48;;;7.40;;
50821;SDS011;36794;51.212;6.980;2023-10-13T08:11:53;15.23;;;7.07;;
50821;SDS011;36794;51.212;6.980;2023-10-13T08:14:19;20.15;;;7.18;;
50821;SDS011;36794;51.212;6.980;2023-10-13T08:16:49;19.60;;;6.97;;
50821;SDS011;36794;51.212;6.980;2023-10-13T08:19:19;20.75;;;6.75;;
50821;SDS011;36794;51.212;6.980;2023-10-13T08:21:51;22.10;;;7.43;;
50821;SDS011;36794;51.212;6.980;2023-10-13T08:24:22;13.43;;;6.45;;
50821;SDS011;36794;51.212;6.980;2023-10-13T08:27:14;22.08;;;7.13;;
50821;SDS011;36794;51.212;6.980;2023-10-13T08:29:44;13.63;;;5.43;;
50821;SDS011;36794;51.212;6.980;2023-10-13T08:32:20;21.45;;;6.38;;
50821;SDS011;36794;51.212;6.980;2023-10-13T08:34:52;18.52;;;6.22;;
50821;SDS011;36794;51.212;6.980;2023-10-13T08:37:18;24.77;;;6.40;;
50821;SDS011;36794;51.212;6.980;2023-10-13T08:39:50;15.48;;;6.40;;
50821;SDS011;36794;51.212;6.980;2023-10-13T08:42:29;16.60;;;6.63;;
50821;SDS011;36794;51.212;6.980;2023-10-13T08:45:08;19.90;;;5.75;;
50821;SDS011;36794;51.212;6.980;2023-10-13T08:47:53;21.90;;;6.22;;
50821;SDS011;36794;51.212;6.980;2023-10-13T08:50:32;19.98;;;5.32;;
50821;SDS011;36794;51.212;6.980;2023-10-13T08:56:00;17.58;;;5.60;;
50821;SDS011;36794;51.212;6.980;2023-10-13T08:58:36;14.20;;;5.57;;
50821;SDS011;36794;51.212;6.980;2023-10-13T09:01:29;17.52;;;4.97;;
50821;SDS011;36794;51.212;6.980;2023-10-13T09:04:13;18.08;;;4.60;;
50821;SDS011;36794;51.212;6.980;2023-10-13T09:06:43;14.98;;;4.28;;
50821;SDS011;36794;51.212;6.980;2023-10-13T09:09:13;25.88;;;5.43;;
50821;SDS011;36794;51.212;6.980;2023-10-13T09:12:14;17.58;;;4.60;;
50821;SDS011;36794;51.212;6.980;2023-10-13T09:14:43;17.65;;;4.55;;
50821;SDS011;36794;51.212;6.980;2023-10-13T09:17:10;15.45;;;5.10;;
50821;SDS011;36794;51.212;6.980;2023-10-13T09:19:55;18.20;;;5.00;;
50821;SDS011;36794;51.212;6.980;2023-10-13T09:22:22;19.05;;;5.55;;
50821;SDS011;36794;51.212;6.980;2023-10-13T09:24:51;21.75;;;5.40;;
50821;SDS011;36794;51.212;6.980;2023-10-13T09:27:17;15.45;;;5.13;;
50821;SDS011;36794;51.212;6.980;2023-10-13T09:29:43;23.23;;;5.35;;
50821;SDS011;36794;51.212;6.980;2023-10-13T09:32:17;12.38;;;4.47;;
50821;SDS011;36794;51.212;6.980;2023-10-13T09:34:46;16.80;;;4.60;;
50821;SDS011;36794;51.212;6.980;2023-10-13T09:37:13;16.13;;;4.90;;
50821;SDS011;36794;51.212;6.980;2023-10-13T09:39:45;15.18;;;4.88;;
50821;SDS011;36794;51.212;6.980;2023-10-13T09:42:17;16.63;;;5.35;;
50821;SDS011;36794;51.212;6.980;2023-10-13T09:44:43;17.52;;;5.35;;
50821;SDS011;36794;51.212;6.980;2023-10-13T09:47:16;16.42;;;4.97;;
50821;SDS011;36794;51.212;6.980;2023-10-13T09:49:46;15.00;;;4.88;;
50821;SDS011;36794;51.212;6.980;2023-10-13T09:52:19;13.75;;;4.88;;
50821;SDS011;36794;51.212;6.980;2023-10-13T09:57:34;22.50;;;5.35;;
50821;SDS011;36794;51.212;6.980;2023-10-13T10:00:06;16.33;;;4.95;;
50821;SDS011;36794;51.212;6.980;2023-10-13T10:02:53;13.82;;;5.05;;
50821;SDS011;36794;51.212;6.980;2023-10-13T10:05:26;15.68;;;4.82;;
50821;SDS011;36794;51.212;6.980;2023-10-13T10:07:55;17.15;;;5.30;;
50821;SDS011;36794;51.212;6.980;2023-10-13T10:10:24;12.98;;;5.25;;
50821;SDS011;36794;51.212;6.980;2023-10-13T10:13:36;17.45;;;5.15;;
50821;SDS011;36794;51.212;6.980;2023-10-13T10:15:46;15.32;;;5.43;;
50821;SDS011;36794;51.212;6.980;2023-10-13T10:18:22;16.50;;;5.07;;
50821;SDS011;36794;51.212;6.980;2023-10-13T10:20:50;15.50;;;4.65;;
50821;SDS011;36794;51.212;6.980;2023-10-13T10:23:27;14.60;;;4.90;;
50821;SDS011;36794;51.212;6.980;2023-10-13T10:26:13;15.32;;;4.72;;
50821;SDS011;36794;51.212;6.980;2023-10-13T10:28:42;18.73;;;5.18;;
50821;SDS011;36794;51.212;6.980;2023-10-13T10:31:09;19.58;;;4.90;;
50821;SDS011;36794;51.212;6.980;2023-10-13T10:33:39;14.82;;;5.25;;
50821;SDS011;36794;51.212;6.980;2023-10-13T10:36:05;15.45;;;6.25;;
50821;SDS011;36794;51.212;6.980;2023-10-13T10:38:31;13.18;;;5.28;;
50821;SDS011;36794;51.212;6.980;2023-10-13T10:45:51;16.67;;;5.50;;
50821;SDS011;36794;51.212;6.980;2023-10-13T10:48:18;16.05;;;5.80;;
50821;SDS011;36794;51.212;6.980;2023-10-13T10:50:52;16.02;;;5.43;;
50821;SDS011;36794;51.212;6.980;2023-10-13T10:53:19;14.38;;;5.47;;
50821;SDS011;36794;51.212;6.980;2023-10-13T10:55:47;9.63;;;5.18;;
50821;SDS011;36794;51.212;6.980;2023-10-13T10:58:13;13.95;;;5.13;;
50821;SDS011;36794;51.212;6.980;2023-10-13T11:01:04;16.30;;;5.57;;
50821;SDS011;36794;51.212;6.980;2023-10-13T11:03:35;21.60;;;6.20;;
50821;SDS011;36794;51.212;6.980;2023-10-13T11:06:03;14.40;;;5.13;;
50821;SDS011;36794;51.212;6.980;2023-10-13T11:08:30;16.58;;;5.43;;
50821;SDS011;36794;51.212;6.980;2023-10-13T11:11:03;14.82;;;5.43;;
50821;SDS011;36794;51.212;6.980;2023-10-13T11:13:40;15.40;;;4.85;;
50821;SDS011;36794;51.212;6.980;2023-10-13T11:16:19;17.65;;;4.85;;
50821;SDS011;36794;51.212;6.980;2023-10-13T11:18:48;16.38;;;5.07;;
50821;SDS011;36794;51.212;6.980;2023-10-13T11:21:28;13.77;;;4.53;;
50821;SDS011;36794;51.212;6.980;2023-10-13T11:23:56;17.05;;;5.13;;
50821;SDS011;36794;51.212;6.980;2023-10-13T11:26:32;18.23;;;5.00;;
50821;SDS011;36794;51.212;6.980;2023-10-13T11:28:58;17.60;;;5.10;;
50821;SDS011;36794;51.212;6.980;2023-10-13T11:31:24;12.88;;;5.80;;
50821;SDS011;36794;51.212;6.980;2023-10-13T11:33:50;12.73;;;4.95;;
50821;SDS011;36794;51.212;6.980;2023-10-13T11:36:21;15.23;;;5.03;;
50821;SDS011;36794;51.212;6.980;2023-10-13T11:38:49;16.00;;;5.53;;
50821;SDS011;36794;51.212;6.980;2023-10-13T11:41:16;13.63;;;4.63;;
50821;SDS011;36794;51.212;6.980;2023-10-13T11:43:49;18.27;;;5.80;;
50821;SDS011;36794;51.212;6.980;2023-10-13T11:46:15;16.33;;;5.55;;
50821;SDS011;36794;51.212;6.980;2023-10-13T11:48:42;14.77;;;4.80;;
50821;SDS011;36794;51.212;6.980;2023-10-13T11:51:09;19.45;;;5.13;;
50821;SDS011;36794;51.212;6.980;2023-10-13T11:53:42;20.70;;;5.70;;
50821;SDS011;36794;51.212;6.980;2023-10-13T11:56:08;17.38;;;5.00;;
50821;SDS011;36794;51.212;6.980;2023-10-13T11:58:38;19.23;;;5.38;;
50821;SDS011;36794;51.212;6.980;2023-10-13T12:01:04;16.08;;;5.22;;
50821;SDS011;36794;51.212;6.980;2023-10-13T12:03:42;17.45;;;5.00;;
50821;SDS011;36794;51.212;6.980;2023-10-13T12:06:28;14.48;;;5.28;;
50821;SDS011;36794;51.212;6.980;2023-10-13T12:09:12;23.17;;;5.93;;
50821;SDS011;36794;51.212;6.980;2023-10-13T12:11:41;19.20;;;5.28;;
50821;SDS011;36794;51.212;6.980;2023-10-13T12:14:10;17.05;;;5.40;;
50821;SDS011;36794;51.212;6.980;2023-10-13T12:16:45;14.95;;;4.78;;
50821;SDS011;36794;51.212;6.980;2023-10-13T12:19:16;16.27;;;4.93;;
50821;SDS011;36794;51.212;6.980;2023-10-13T12:21:45;11.50;;;4.75;;
50821;SDS011;36794;51.212;6.980;2023-10-13T12:24:13;20.45;;;4.90;;
50821;SDS011;36794;51.212;6.980;2023-10-13T12:26:57;15.57;;;4.35;;
50821;SDS011;36794;51.212;6.980;2023-10-13T12:29:24;16.48;;;5.15;;
50821;SDS011;36794;51.212;6.980;2023-10-13T12:31:57;17.95;;;4.57;;
50821;SDS011;36794;51.212;6.980;2023-10-13T12:34:32;17.92;;;4.70;;
50821;SDS011;36794;51.212;6.980;2023-10-13T12:37:17;15.40;;;4.57;;
50821;SDS011;36794;51.212;6.980;2023-10-13T12:42:47;13.10;;;4.05;;
50821;SDS011;36794;51.212;6.980;2023-10-13T12:45:44;19.75;;;4.57;;
50821;SDS011;36794;51.212;6.980;2023-10-13T12:48:30;16.40;;;4.43;;
50821;SDS011;36794;51.212;6.980;2023-10-13T12:51:15;12.77;;;4.00;;
50821;SDS011;36794;51.212;6.980;2023-10-13T12:53:56;14.50;;;4.60;;
50821;SDS011;36794;51.212;6.980;2023-10-13T12:56:44;18.95;;;5.15;;
50821;SDS011;36794;51.212;6.980;2023-10-13T12:59:10;16.63;;;5.05;;
50821;SDS011;36794;51.212;6.980;2023-10-13T13:01:40;19.55;;;4.22;;
50821;SDS011;36794;51.212;6.980;2023-10-13T13:04:09;22.13;;;5.30;;
50821;SDS011;36794;51.212;6.980;2023-10-13T13:06:50;14.98;;;4.47;;
50821;SDS011;36794;51.212;6.980;2023-10-13T13:09:18;19.27;;;4.55;;
50821;SDS011;36794;51.212;6.980;2023-10-13T13:11:54;20.55;;;4.47;;
50821;SDS011;36794;51.212;6.980;2023-10-13T13:14:26;20.70;;;4.78;;
50821;SDS011;36794;51.212;6.980;2023-10-13T13:16:55;21.35;;;4.25;;
50821;SDS011;36794;51.212;6.980;2023-10-13T13:19:34;15.23;;;4.63;;
50821;SDS011;36794;51.212;6.980;2023-10-13T13:22:04;20.15;;;5.05;;
50821;SDS011;36794;51.212;6.980;2023-10-13T13:24:30;11.40;;;4.05;;
50821;SDS011;36794;51.212;6.980;2023-10-13T13:26:56;20.80;;;5.22;;
50821;SDS011;36794;51.212;6.980;2023-10-13T13:29:31;21.52;;;4.47;;
50821;SDS011;36794;51.212;6.980;2023-10-13T13:31:57;18.13;;;4.43;;
50821;SDS011;36794;51.212;6.980;2023-10-13T13:34:25;19.25;;;4.90;;
50821;SDS011;36794;51.212;6.980;2023-10-13T13:36:51;19.50;;;4.93;;
50821;SDS011;36794;51.212;6.980;2023-10-13T13:39:19;14.55;;;5.35;;
50821;SDS011;36794;51.212;6.980;2023-10-13T13:41:54;14.20;;;4.18;;
50821;SDS011;36794;51.212;6.980;2023-10-13T13:44:22;15.20;;;4.35;;
50821;SDS011;36794;51.212;6.980;2023-10-13T13:46:54;15.07;;;5.03;;
50821;SDS011;36794;51.212;6.980;2023-10-13T13:49:21;17.92;;;4.70;;
50821;SDS011;36794;51.212;6.980;2023-10-13T13:51:54;19.55;;;4.43;;
50821;SDS011;36794;51.212;6.980;2023-10-13T13:54:29;19.10;;;4.85;;
50821;SDS011;36794;51.212;6.980;2023-10-13T13:56:56;24.35;;;4.40;;
50821;SDS011;36794;51.212;6.980;2023-10-13T13:59:22;14.55;;;4.20;;
50821;SDS011;36794;51.212;6.980;2023-10-13T14:01:48;17.17;;;4.38;;
50821;SDS011;36794;51.212;6.980;2023-10-13T14:04:17;21.92;;;4.80;;
50821;SDS011;36794;51.212;6.980;2023-10-13T14:06:43;22.73;;;4.82;;
50821;SDS011;36794;51.212;6.980;2023-10-13T14:09:10;16.52;;;4.28;;
50821;SDS011;36794;51.212;6.980;2023-10-13T14:11:40;13.63;;;4.30;;
50821;SDS011;36794;51.212;6.980;2023-10-13T14:14:25;22.10;;;4.75;;
50821;SDS011;36794;51.212;6.980;2023-10-13T14:16:51;18.75;;;4.47;;
50821;SDS011;36794;51.212;6.980;2023-10-13T14:19:18;15.80;;;4.90;;
50821;SDS011;36794;51.212;6.980;2023-10-13T14:21:58;14.77;;;4.13;;
50821;SDS011;36794;51.212;6.980;2023-10-13T14:24:25;21.48;;;4.93;;
50821;SDS011;36794;51.212;6.980;2023-10-13T14:26:58;16.02;;;4.53;;
50821;SDS011;36794;51.212;6.980;2023-10-13T14:32:11;15.15;;;4.63;;
50821;SDS011;36794;51.212;6.980;2023-10-13T14:34:41;22.48;;;4.50;;
50821;SDS011;36794;51.212;6.980;2023-10-13T14:37:08;18.13;;;4.15;;
50821;SDS011;36794;51.212;6.980;2023-10-13T14:39:37;25.40;;;5.07;;
50821;SDS011;36794;51.212;6.980;2023-10-13T14:42:03;18.98;;;3.90;;
50821;SDS011;36794;51.212;6.980;2023-10-13T14:44:33;14.25;;;4.45;;
50821;SDS011;36794;51.212;6.980;2023-10-13T14:46:59;14.02;;;4.18;;
50821;SDS011;36794;51.212;6.980;2023-10-13T14:49:25;16.73;;;4.05;;
50821;SDS011;36794;51.212;6.980;2023-10-13T14:51:51;20.42;;;4.68;;
50821;SDS011;36794;51.212;6.980;2023-10-13T14:54:20;21.15;;;4.18;;
50821;SDS011;36794;51.212;6.980;2023-10-13T14:56:57;19.98;;;4.43;;
50821;SDS011;36794;51.212;6.980;2023-10-13T14:59:23;23.42;;;4.53;;
50821;SDS011;36794;51.212;6.980;2023-10-13T15:01:49;17.20;;;4.30;;
50821;SDS011;36794;51.212;6.980;2023-10-13T15:04:15;16.40;;;5.05;;
50821;SDS011;36794;51.212;6.980;2023-10-13T15:06:41;20.00;;;4.30;;
50821;SDS011;36794;51.212;6.980;2023-10-13T15:09:09;20.90;;;4.95;;
50821;SDS011;36794;51.212;6.980;2023-10-13T15:11:36;21.77;;;4.55;;
50821;SDS011;36794;51.212;6.980;2023-10-13T15:14:02;13.52;;;4.20;;
50821;SDS011;36794;51.212;6.980;2023-10-13T15:16:29;21.92;;;4.18;;
50821;SDS011;36794;51.212;6.980;2023-10-13T15:18:55;17.30;;;4.72;;
50821;SDS011;36794;51.212;6.980;2023-10-13T15:21:28;15.07;;;4.10;;
50821;SDS011;36794;51.212;6.980;2023-10-13T15:23:59;18.13;;;4.22;;